Terminal Aerodrome Forecast
Issued by NWS

Home | Current Version | Previous Version | Text Only | Print | Product List | Glossary On
Versions: 1 2 3 4 5 6 7 8 9 10 11 12 13
000
FTUS44 KLZK 011700
TAFHOT
TAF
KHOT 011736Z 0118/0218 22009G15KT P6SM SCT050 BKN250
     FM020500 21007KT P6SM SCT030 BKN250
     FM021300 23010G20KT P6SM SCT015 BKN150=

USA.gov is the U.S. government's official web portal to all federal, state and local government web resources and services.